Time;durP1;ratioP1;P1;durP2;ratioP2;P2;SDS_P1;SDS_P2;PMS_P1;PMS_P2;Temp;Humidity;BMP_temperature;BMP_pressure;BME280_temperature;BME280_humidity;BME280_pressure;Samples;Min_cycle;Max_cycle;Signal;HPM_P1;HPM_P2
2021/09/05 00:00:33;;;;;;;11.10;8.37;;;16.10;99.90;;;;;;5014764;28;20228;-61
2021/09/05 00:02:58;;;;;;;8.80;7.90;;;16.10;99.90;;;;;;5015205;28;20332;-62
2021/09/05 00:05:24;;;;;;;11.77;8.50;;;16.10;99.90;;;;;;5015082;28;20262;-61
2021/09/05 00:07:49;;;;;;;10.73;8.57;;;16.00;99.90;;;;;;5015194;28;20199;-61
2021/09/05 00:10:15;;;;;;;8.53;7.70;;;15.90;99.90;;;;;;5013816;28;20182;-60
2021/09/05 00:12:42;;;;;;;8.50;7.33;;;15.90;99.90;;;;;;5014867;28;20198;-62
2021/09/05 00:15:09;;;;;;;9.87;9.10;;;15.90;99.90;;;;;;5014900;28;20225;-62
2021/09/05 00:17:36;;;;;;;9.57;8.67;;;15.90;99.90;;;;;;5013552;28;20835;-62
2021/09/05 00:20:02;;;;;;;9.53;8.33;;;16.00;99.90;;;;;;5014496;28;20429;-61
2021/09/05 00:22:27;;;;;;;11.20;8.50;;;15.90;99.90;;;;;;5014694;28;20428;-62
2021/09/05 00:24:53;;;;;;;10.63;8.10;;;15.80;99.90;;;;;;5014689;28;20418;-62
2021/09/05 00:27:18;;;;;;;9.63;8.73;;;15.90;99.90;;;;;;5014580;28;20677;-62
2021/09/05 00:29:44;;;;;;;9.33;8.43;;;15.90;99.90;;;;;;5014192;28;20213;-62
2021/09/05 00:32:09;;;;;;;10.40;9.40;;;15.80;99.90;;;;;;5014584;28;20175;-62
2021/09/05 00:34:35;;;;;;;9.87;8.40;;;15.80;99.90;;;;;;5013299;28;20179;-61
2021/09/05 00:37:00;;;;;;;9.77;8.80;;;15.80;99.90;;;;;;5014383;28;20179;-62
2021/09/05 00:39:26;;;;;;;8.97;8.17;;;15.70;99.90;;;;;;5014175;28;20178;-61
2021/09/05 00:41:52;;;;;;;8.73;7.80;;;15.80;99.90;;;;;;5014418;28;20182;-61
2021/09/05 00:44:17;;;;;;;8.53;7.83;;;15.80;99.90;;;;;;5014228;28;20672;-61
2021/09/05 00:46:43;;;;;;;9.60;7.67;;;15.70;99.90;;;;;;5014326;28;20183;-61
2021/09/05 00:49:10;;;;;;;9.93;9.03;;;15.70;99.90;;;;;;5013892;28;20195;-62
2021/09/05 00:51:41;;;;;;;9.40;8.57;;;15.70;99.90;;;;;;5013768;28;20175;-61
2021/09/05 00:54:09;;;;;;;9.83;8.83;;;15.70;99.90;;;;;;5014121;28;20433;-60
2021/09/05 00:56:38;;;;;;;9.13;8.23;;;15.60;99.90;;;;;;5014085;28;20421;-61
2021/09/05 00:59:07;;;;;;;8.90;8.10;;;15.60;99.90;;;;;;5013683;28;20441;-62
2021/09/05 01:01:33;;;;;;;9.53;8.73;;;15.70;99.90;;;;;;5014108;28;20817;-62
2021/09/05 01:03:59;;;;;;;10.00;9.20;;;15.70;99.90;;;;;;5013891;28;20468;-62
2021/09/05 01:06:25;;;;;;;10.20;9.23;;;15.50;99.90;;;;;;5013776;28;20444;-62
2021/09/05 01:08:52;;;;;;;11.70;9.40;;;15.40;99.90;;;;;;5013579;28;20253;-62
2021/09/05 01:11:19;;;;;;;10.10;9.10;;;15.30;99.90;;;;;;5013901;28;20183;-62
2021/09/05 01:13:45;;;;;;;10.37;9.40;;;15.40;99.90;;;;;;5013800;28;20422;-61
2021/09/05 01:16:26;;;;;;;11.73;9.67;;;15.50;99.90;;;;;;5013771;28;20487;-61
2021/09/05 01:18:52;;;;;;;8.53;7.80;;;15.50;99.90;;;;;;5013292;28;20198;-61
2021/09/05 01:21:18;;;;;;;9.90;9.00;;;15.30;99.90;;;;;;5012413;28;20433;-61
2021/09/05 01:23:45;;;;;;;10.30;9.23;;;15.30;99.90;;;;;;5013654;28;20482;-62
2021/09/05 01:26:12;;;;;;;11.13;10.03;;;15.30;99.90;;;;;;5013521;28;20475;-62
2021/09/05 01:28:39;;;;;;;10.80;9.70;;;15.30;99.90;;;;;;5013115;28;20195;-62
2021/09/05 01:31:04;;;;;;;13.07;10.47;;;15.20;99.90;;;;;;5013514;28;20505;-61
2021/09/05 01:33:30;;;;;;;10.33;9.40;;;15.20;99.90;;;;;;5013306;28;20861;-62
2021/09/05 01:35:55;;;;;;;11.30;10.30;;;15.20;99.90;;;;;;5013324;28;20187;-62
2021/09/05 01:38:21;;;;;;;10.70;9.60;;;15.30;99.90;;;;;;5013110;28;20199;-62
2021/09/05 01:40:46;;;;;;;15.20;11.90;;;15.40;99.90;;;;;;5013132;28;20203;-62
2021/09/05 01:43:12;;;;;;;12.40;11.10;;;15.30;99.90;;;;;;5013234;28;20195;-62
2021/09/05 01:45:37;;;;;;;12.47;11.27;;;15.20;99.90;;;;;;5013170;28;20171;-61
2021/09/05 01:48:03;;;;;;;12.20;10.60;;;15.20;99.90;;;;;;5012927;28;20199;-62
2021/09/05 01:50:29;;;;;;;12.43;11.20;;;15.20;99.90;;;;;;5012514;28;20187;-61
2021/09/05 01:52:54;;;;;;;11.90;10.80;;;15.20;99.90;;;;;;5013012;28;20245;-61
2021/09/05 01:55:20;;;;;;;14.43;11.77;;;15.00;99.90;;;;;;5013066;28;20278;-62
2021/09/05 01:57:45;;;;;;;12.87;10.07;;;14.90;99.90;;;;;;5012964;28;20253;-62
2021/09/05 02:00:11;;;;;;;12.67;11.40;;;14.90;99.90;;;;;;5012517;28;20183;-61
2021/09/05 02:02:37;;;;;;;12.67;10.97;;;14.80;99.90;;;;;;5011562;28;22062;-61
2021/09/05 02:05:03;;;;;;;14.07;10.77;;;14.80;99.90;;;;;;5012972;28;20432;-62
2021/09/05 02:07:28;;;;;;;11.37;10.37;;;14.90;99.90;;;;;;5012759;28;20195;-61
2021/09/05 02:09:54;;;;;;;9.77;8.97;;;15.00;99.90;;;;;;5012466;28;20418;-61
2021/09/05 02:12:21;;;;;;;12.07;10.87;;;14.90;99.90;;;;;;5012765;28;20583;-60
2021/09/05 02:14:47;;;;;;;11.50;10.40;;;14.80;99.90;;;;;;5012612;28;20468;-62
2021/09/05 02:17:12;;;;;;;12.83;11.57;;;14.80;99.90;;;;;;5012631;28;20544;-61
2021/09/05 02:19:38;;;;;;;13.10;11.40;;;14.80;99.90;;;;;;5012554;28;20178;-60
2021/09/05 02:22:03;;;;;;;13.90;10.97;;;14.80;99.90;;;;;;5012606;28;20636;-61
2021/09/05 02:24:29;;;;;;;11.70;10.67;;;15.00;99.90;;;;;;5012474;28;20234;-61
2021/09/05 02:26:54;;;;;;;11.43;10.43;;;14.90;99.90;;;;;;5012544;28;20171;-62
2021/09/05 02:29:20;;;;;;;11.30;10.13;;;14.90;99.90;;;;;;5012168;28;20629;-61
2021/09/05 02:31:45;;;;;;;12.30;9.73;;;14.80;99.90;;;;;;5011999;28;20171;-62
2021/09/05 02:34:11;;;;;;;11.03;10.00;;;14.60;99.90;;;;;;5012443;28;20178;-62
2021/09/05 02:36:36;;;;;;;12.90;9.80;;;14.60;99.90;;;;;;5012395;28;20179;-61
2021/09/05 02:39:03;;;;;;;11.20;10.20;;;14.60;99.90;;;;;;5011971;28;20677;-62
2021/09/05 02:41:29;;;;;;;11.50;10.57;;;14.60;99.90;;;;;;5012380;28;20738;-61
2021/09/05 02:43:54;;;;;;;10.80;9.73;;;14.70;99.90;;;;;;5012140;28;20489;-61
2021/09/05 02:46:20;;;;;;;10.00;9.00;;;14.70;99.90;;;;;;5012248;28;20171;-61
2021/09/05 02:48:45;;;;;;;11.07;9.97;;;14.80;99.90;;;;;;5011937;28;20265;-59
2021/09/05 02:51:11;;;;;;;11.20;10.00;;;14.70;99.90;;;;;;5011725;28;20182;-61
2021/09/05 02:53:36;;;;;;;11.30;10.07;;;14.70;99.90;;;;;;5012223;28;20182;-61
2021/09/05 02:56:02;;;;;;;9.80;8.90;;;14.80;99.90;;;;;;5012113;28;20209;-61
2021/09/05 02:58:28;;;;;;;11.37;10.30;;;14.70;99.90;;;;;;5011827;28;20203;-62
2021/09/05 03:00:53;;;;;;;10.97;9.90;;;14.60;99.90;;;;;;5012069;28;20688;-62
2021/09/05 03:03:19;;;;;;;10.87;9.80;;;14.60;99.90;;;;;;5012134;28;20202;-61
2021/09/05 03:05:44;;;;;;;8.97;8.17;;;14.60;99.90;;;;;;5012105;28;20170;-61
2021/09/05 03:08:10;;;;;;;11.67;10.43;;;14.50;99.90;;;;;;5011943;28;20607;-62
2021/09/05 03:10:36;;;;;;;11.90;10.53;;;14.50;99.90;;;;;;5011694;28;20171;-61
2021/09/05 03:13:01;;;;;;;11.63;9.67;;;14.50;99.90;;;;;;5012313;28;20945;-61
2021/09/05 03:15:27;;;;;;;11.40;9.53;;;14.50;99.90;;;;;;5011992;28;20179;-62
2021/09/05 03:17:52;;;;;;;9.70;8.80;;;14.40;99.90;;;;;;5011869;28;20272;-61
2021/09/05 03:20:18;;;;;;;9.50;8.70;;;14.40;99.90;;;;;;5011796;28;20190;-61
2021/09/05 03:22:43;;;;;;;10.53;9.43;;;14.50;99.90;;;;;;5011898;28;20293;-62
2021/09/05 03:25:09;;;;;;;11.27;9.87;;;14.40;99.90;;;;;;5011797;28;20651;-62
2021/09/05 03:27:35;;;;;;;11.50;9.73;;;14.40;99.90;;;;;;5011881;28;20579;-62
2021/09/05 03:30:00;;;;;;;9.70;8.80;;;14.50;99.90;;;;;;5011550;28;20960;-62
2021/09/05 03:32:26;;;;;;;8.90;8.20;;;14.40;99.90;;;;;;5011882;28;20167;-61
2021/09/05 03:34:51;;;;;;;9.43;8.43;;;14.40;99.90;;;;;;5011809;28;20263;-62
2021/09/05 03:37:17;;;;;;;10.10;9.20;;;14.50;99.90;;;;;;5011619;28;20206;-61
2021/09/05 03:39:42;;;;;;;9.83;9.03;;;14.40;99.90;;;;;;5011439;28;20171;-62
2021/09/05 03:42:08;;;;;;;10.07;9.07;;;14.20;99.90;;;;;;5011761;28;20171;-62
2021/09/05 03:44:34;;;;;;;10.03;9.07;;;14.10;99.90;;;;;;5013162;28;20660;-62
2021/09/05 03:46:59;;;;;;;9.37;8.47;;;14.20;99.90;;;;;;5015353;28;20171;-62
2021/09/05 03:49:25;;;;;;;12.07;9.67;;;14.30;99.90;;;;;;5015143;28;20249;-61
2021/09/05 03:51:50;;;;;;;9.53;8.67;;;14.30;99.90;;;;;;5015336;28;20182;-61
2021/09/05 03:54:16;;;;;;;10.73;9.80;;;14.20;99.90;;;;;;5015711;28;20189;-61
2021/09/05 03:56:41;;;;;;;9.90;9.00;;;14.20;99.90;;;;;;5015319;28;20183;-60
2021/09/05 03:59:07;;;;;;;11.60;9.30;;;14.10;99.90;;;;;;5014841;28;20194;-61
2021/09/05 04:01:33;;;;;;;9.77;8.83;;;14.10;99.90;;;;;;5015191;28;20182;-62
2021/09/05 04:03:58;;;;;;;10.70;9.80;;;14.10;99.90;;;;;;5015071;28;20206;-61
2021/09/05 04:06:24;;;;;;;9.83;8.83;;;14.20;99.90;;;;;;5015040;28;20220;-62
2021/09/05 04:08:51;;;;;;;10.80;9.83;;;14.10;99.90;;;;;;5015134;28;20187;-61
2021/09/05 04:11:17;;;;;;;15.07;9.33;;;14.10;99.90;;;;;;5015035;28;20246;-62
2021/09/05 04:13:42;;;;;;;10.97;9.53;;;14.00;99.90;;;;;;5014968;28;20509;-61
2021/09/05 04:16:08;;;;;;;10.30;9.27;;;13.90;99.90;;;;;;5014946;28;20179;-60
2021/09/05 04:18:34;;;;;;;10.03;9.03;;;14.00;99.90;;;;;;5015083;28;20215;-62
2021/09/05 04:21:00;;;;;;;10.07;8.80;;;14.00;99.90;;;;;;5014745;28;20559;-62
2021/09/05 04:23:25;;;;;;;11.07;10.03;;;14.00;99.90;;;;;;5014567;28;20209;-62
2021/09/05 04:25:51;;;;;;;10.70;9.70;;;14.00;99.90;;;;;;5014736;28;20179;-62
2021/09/05 04:28:16;;;;;;;11.73;10.00;;;14.00;99.90;;;;;;5014467;28;20279;-62
2021/09/05 04:30:42;;;;;;;12.20;11.03;;;13.90;99.90;;;;;;5014615;28;20258;-62
2021/09/05 04:33:08;;;;;;;11.13;10.13;;;13.90;99.90;;;;;;5014678;28;20183;-62
2021/09/05 04:35:33;;;;;;;10.90;9.80;;;13.90;99.90;;;;;;5014572;28;20194;-62
2021/09/05 04:37:59;;;;;;;10.57;9.57;;;14.00;99.90;;;;;;5014303;28;20953;-62
2021/09/05 04:40:24;;;;;;;10.23;9.23;;;14.10;99.90;;;;;;5014143;28;20253;-62
2021/09/05 04:42:50;;;;;;;10.73;9.60;;;14.10;99.90;;;;;;5014345;28;20338;-62
2021/09/05 04:45:15;;;;;;;11.23;10.17;;;14.10;99.90;;;;;;5014343;28;20237;-62
2021/09/05 04:47:41;;;;;;;9.73;8.83;;;14.00;99.90;;;;;;5014270;28;20202;-62
2021/09/05 04:50:07;;;;;;;10.70;9.70;;;14.00;99.90;;;;;;5013461;28;20183;-62
2021/09/05 04:52:33;;;;;;;11.17;9.63;;;14.00;99.90;;;;;;5014213;28;20487;-62
2021/09/05 04:54:58;;;;;;;18.03;10.87;;;14.00;99.90;;;;;;5013791;28;20941;-62
2021/09/05 04:57:24;;;;;;;11.47;9.93;;;14.10;99.90;;;;;;5014063;28;20195;-62
2021/09/05 04:59:50;;;;;;;11.93;10.30;;;14.10;99.90;;;;;;5013820;28;20178;-62
2021/09/05 05:02:15;;;;;;;12.93;11.03;;;14.10;99.90;;;;;;5013963;28;20418;-62
2021/09/05 05:04:41;;;;;;;13.03;11.83;;;14.10;99.90;;;;;;5013928;28;20229;-62
2021/09/05 05:07:07;;;;;;;15.80;12.27;;;14.20;99.90;;;;;;5013975;28;20258;-62
2021/09/05 05:09:32;;;;;;;13.13;11.77;;;14.20;99.90;;;;;;5013586;28;20206;-62
2021/09/05 05:11:57;;;;;;;12.40;11.10;;;14.20;99.90;;;;;;5013876;28;20549;-62
2021/09/05 05:14:23;;;;;;;10.63;9.23;;;14.20;99.90;;;;;;5013782;28;20194;-62
2021/09/05 05:16:48;;;;;;;11.93;10.83;;;14.20;99.90;;;;;;5013615;28;20186;-62
2021/09/05 05:19:14;;;;;;;10.37;9.43;;;14.10;99.90;;;;;;5013363;28;20203;-62
2021/09/05 05:21:41;;;;;;;12.07;10.87;;;14.10;99.90;;;;;;5013600;28;20183;-62
2021/09/05 05:24:07;;;;;;;14.03;12.30;;;14.20;99.90;;;;;;5013637;28;20217;-62
2021/09/05 05:26:32;;;;;;;11.87;10.80;;;14.30;99.90;;;;;;5013629;28;20421;-62
2021/09/05 05:28:58;;;;;;;12.77;11.57;;;14.50;99.90;;;;;;5013238;28;20214;-62
2021/09/05 05:31:24;;;;;;;12.40;11.30;;;14.60;99.90;;;;;;5013385;28;20277;-62
2021/09/05 05:33:49;;;;;;;10.77;9.77;;;14.70;99.90;;;;;;5013453;28;20187;-62
2021/09/05 05:36:15;;;;;;;10.20;9.10;;;14.80;99.90;;;;;;5013334;28;20179;-62
2021/09/05 05:38:41;;;;;;;10.40;9.50;;;14.80;99.90;;;;;;5013137;28;20198;-62
2021/09/05 05:41:08;;;;;;;12.47;11.30;;;14.90;99.90;;;;;;5013373;28;20221;-62
2021/09/05 05:43:35;;;;;;;13.20;12.00;;;14.80;99.90;;;;;;5013233;28;20504;-62
2021/09/05 05:46:00;;;;;;;11.20;10.10;;;14.90;99.90;;;;;;5013058;28;20444;-62
2021/09/05 05:48:26;;;;;;;10.40;9.40;;;14.90;99.90;;;;;;5012816;28;20445;-62
2021/09/05 05:50:53;;;;;;;14.50;11.67;;;15.00;99.90;;;;;;5012777;28;20233;-62
2021/09/05 05:53:19;;;;;;;11.27;10.30;;;15.20;99.90;;;;;;5013131;28;20174;-62
2021/09/05 05:55:45;;;;;;;10.90;9.80;;;15.40;99.90;;;;;;5013100;28;20504;-62
2021/09/05 05:58:11;;;;;;;13.00;11.77;;;15.60;99.90;;;;;;5012903;28;20484;-62
2021/09/05 06:00:38;;;;;;;13.73;12.37;;;15.80;99.90;;;;;;5012694;28;20218;-62
2021/09/05 06:03:05;;;;;;;14.10;12.70;;;16.00;99.90;;;;;;5012921;28;20563;-62
2021/09/05 06:05:30;;;;;;;15.20;13.70;;;16.20;99.90;;;;;;5012901;28;20425;-62
2021/09/05 06:07:56;;;;;;;14.80;12.30;;;16.20;99.90;;;;;;5012094;28;20437;-62
2021/09/05 06:10:22;;;;;;;14.23;12.50;;;16.30;99.90;;;;;;5012678;28;20167;-62
2021/09/05 06:12:47;;;;;;;13.30;11.90;;;16.40;99.90;;;;;;5012786;28;20652;-62
2021/09/05 06:15:13;;;;;;;14.93;13.53;;;16.40;99.90;;;;;;5012768;28;20170;-62
2021/09/05 06:17:38;;;;;;;15.33;13.73;;;16.40;99.90;;;;;;5012591;28;20210;-62
2021/09/05 06:20:08;;;;;;;14.43;12.93;;;16.40;99.90;;;;;;5012515;28;20179;-62
2021/09/05 06:22:34;;;;;;;15.20;13.70;;;16.60;99.90;;;;;;5012620;28;20175;-62
2021/09/05 06:24:59;;;;;;;18.27;14.13;;;16.80;99.90;;;;;;5011383;28;20750;-62
2021/09/05 06:27:25;;;;;;;15.73;14.10;;;16.90;99.90;;;;;;5012433;28;21010;-62
2021/09/05 06:29:50;;;;;;;12.90;11.60;;;17.00;99.90;;;;;;5012175;28;20174;-62
2021/09/05 06:32:16;;;;;;;15.97;14.27;;;17.10;99.90;;;;;;5012469;28;20707;-62
2021/09/05 06:34:41;;;;;;;15.27;13.63;;;17.40;99.90;;;;;;5012453;28;20221;-62
2021/09/05 06:37:07;;;;;;;16.63;14.50;;;17.60;99.90;;;;;;5012416;28;20675;-62
2021/09/05 06:39:32;;;;;;;14.60;13.10;;;17.80;99.90;;;;;;5012101;28;20190;-62
2021/09/05 06:41:59;;;;;;;15.10;13.63;;;17.80;99.90;;;;;;5012265;28;20236;-62
2021/09/05 06:44:25;;;;;;;13.50;12.10;;;18.00;99.90;;;;;;5012276;28;20199;-62
2021/09/05 06:46:51;;;;;;;15.70;13.10;;;18.10;99.90;;;;;;5012231;28;20421;-62
2021/09/05 06:49:16;;;;;;;13.47;12.03;;;18.20;99.90;;;;;;5011985;28;20529;-62
2021/09/05 06:51:42;;;;;;;13.03;11.70;;;18.40;99.90;;;;;;5011965;28;20505;-62
2021/09/05 06:54:07;;;;;;;14.60;13.23;;;18.90;99.90;;;;;;5012136;28;20175;-62
2021/09/05 06:56:33;;;;;;;12.93;11.67;;;19.00;99.90;;;;;;5012404;28;20182;-62
2021/09/05 06:58:59;;;;;;;13.43;11.80;;;19.40;99.90;;;;;;5011859;28;20269;-62
2021/09/05 07:01:24;;;;;;;11.50;10.30;;;19.90;99.90;;;;;;5012101;28;20688;-62
2021/09/05 07:03:49;;;;;;;13.17;11.03;;;20.40;99.90;;;;;;5012122;28;20321;-62
2021/09/05 07:06:15;;;;;;;11.57;10.33;;;20.40;99.90;;;;;;5012088;28;20171;-62
2021/09/05 07:08:41;;;;;;;12.83;10.37;;;20.70;99.90;;;;;;5011685;28;20195;-63
2021/09/05 07:11:06;;;;;;;10.73;9.73;;;21.10;99.90;;;;;;5012057;28;20175;-63
2021/09/05 07:13:32;;;;;;;10.20;9.30;;;21.50;99.90;;;;;;5010803;28;20175;-63
2021/09/05 07:15:57;;;;;;;9.50;8.70;;;21.60;99.90;;;;;;5011989;28;20664;-62
2021/09/05 07:18:23;;;;;;;10.13;9.33;;;21.90;99.90;;;;;;5013180;28;20650;-62
2021/09/05 07:20:50;;;;;;;9.77;8.67;;;21.70;99.90;;;;;;5015893;28;20178;-62
2021/09/05 07:23:15;;;;;;;11.00;10.10;;;21.70;99.90;;;;;;5016274;28;20197;-62
2021/09/05 07:25:41;;;;;;;12.50;9.60;;;21.90;99.90;;;;;;5015855;28;20412;-62
2021/09/05 07:28:06;;;;;;;9.80;8.90;;;21.40;99.90;;;;;;5015708;28;20661;-62
2021/09/05 07:30:32;;;;;;;11.10;10.20;;;20.90;99.90;;;;;;5015422;28;20175;-62
2021/09/05 07:32:57;;;;;;;10.00;9.00;;;20.80;99.90;;;;;;5015677;28;20178;-63
2021/09/05 07:35:23;;;;;;;10.53;9.67;;;20.70;99.90;;;;;;5014418;28;20637;-62
2021/09/05 07:37:49;;;;;;;11.10;9.50;;;20.90;99.90;;;;;;5015434;28;20198;-61
2021/09/05 07:40:15;;;;;;;9.10;8.40;;;21.30;99.90;;;;;;5015343;28;20551;-62
2021/09/05 07:42:41;;;;;;;10.53;8.60;;;21.80;99.90;;;;;;5015491;28;20175;-61
2021/09/05 07:45:07;;;;;;;13.43;11.17;;;22.10;99.90;;;;;;5014030;28;20426;-62
2021/09/05 07:47:33;;;;;;;9.20;8.40;;;22.20;99.90;;;;;;5015267;28;20495;-62
2021/09/05 07:49:59;;;;;;;8.80;8.00;;;22.40;99.90;;;;;;5014770;28;20429;-62
2021/09/05 07:52:24;;;;;;;9.37;8.47;;;22.50;99.90;;;;;;5015328;28;20182;-62
2021/09/05 07:54:50;;;;;;;8.10;7.37;;;23.00;99.90;;;;;;5015467;28;20175;-62
2021/09/05 07:57:16;;;;;;;10.10;9.10;;;23.50;99.90;;;;;;5015513;28;20203;-62
2021/09/05 07:59:41;;;;;;;8.93;7.83;;;23.90;99.90;;;;;;5014994;28;20171;-62
2021/09/05 08:02:07;;;;;;;9.57;8.77;;;24.20;99.90;;;;;;5015105;28;20179;-62
2021/09/05 08:04:32;;;;;;;9.37;8.47;;;24.50;99.90;;;;;;5014961;28;20215;-63
2021/09/05 08:06:58;;;;;;;8.37;7.67;;;24.70;99.90;;;;;;5015022;28;20648;-62
2021/09/05 08:09:23;;;;;;;9.23;8.27;;;25.00;99.90;;;;;;5014712;28;20206;-61
2021/09/05 08:11:49;;;;;;;8.50;7.37;;;25.40;99.90;;;;;;5014977;28;20210;-62
2021/09/05 08:14:14;;;;;;;7.73;7.07;;;25.60;99.90;;;;;;5015033;28;20183;-60
2021/09/05 08:16:40;;;;;;;9.67;8.77;;;25.70;99.90;;;;;;5014688;28;20257;-62
2021/09/05 08:19:05;;;;;;;8.40;7.60;;;25.40;99.90;;;;;;5014417;28;20195;-62
2021/09/05 08:21:31;;;;;;;8.27;7.53;;;25.80;99.90;;;;;;5014802;28;20533;-62
2021/09/05 08:23:57;;;;;;;9.83;9.03;;;26.20;99.90;;;;;;5014688;28;20222;-62
2021/09/05 08:26:23;;;;;;;10.50;8.47;;;26.60;99.90;;;;;;5014817;28;20179;-62
2021/09/05 08:28:50;;;;;;;7.80;7.03;;;26.80;99.90;;;;;;5014357;28;20195;-62
2021/09/05 08:31:16;;;;;;;8.03;7.33;;;26.90;99.90;;;;;;5013879;28;20432;-61
2021/09/05 08:33:41;;;;;;;7.60;7.00;;;27.00;99.90;;;;;;5014550;28;20418;-62
2021/09/05 08:36:07;;;;;;;7.80;7.10;;;27.00;99.20;;;;;;5014549;28;20214;-62
2021/09/05 08:38:33;;;;;;;8.07;7.37;;;27.20;99.00;;;;;;5014238;28;20195;-60
2021/09/05 08:40:59;;;;;;;8.07;7.03;;;27.50;98.80;;;;;;5014487;28;20178;-62
2021/09/05 08:43:25;;;;;;;8.43;7.53;;;27.80;97.70;;;;;;5014419;28;20198;-62
2021/09/05 08:45:50;;;;;;;8.37;7.60;;;28.00;96.60;;;;;;5014312;28;20454;-62
2021/09/05 08:48:19;;;;;;;11.27;7.00;;;27.60;97.00;;;;;;5014055;28;20465;-61
2021/09/05 08:50:46;;;;;;;7.60;7.00;;;27.50;97.40;;;;;;5014140;28;20651;-62
2021/09/05 08:53:12;;;;;;;7.67;7.07;;;27.90;96.10;;;;;;5014173;28;20418;-63
2021/09/05 08:55:38;;;;;;;9.40;7.63;;;28.10;95.70;;;;;;5012967;28;20422;-62
2021/09/05 08:58:04;;;;;;;8.27;6.57;;;28.40;95.90;;;;;;5014036;28;20472;-62
2021/09/05 09:00:29;;;;;;;6.77;6.30;;;29.20;95.70;;;;;;5013776;28;20171;-62
2021/09/05 09:02:56;;;;;;;8.63;7.93;;;29.60;94.80;;;;;;5013914;28;20207;-63
2021/09/05 09:05:36;;;;;;;8.30;7.70;;;29.50;93.70;;;;;;5014250;28;20699;-63
2021/09/05 09:08:08;;;;;;;8.60;7.90;;;30.00;93.40;;;;;;5013788;28;20974;-63
2021/09/05 09:10:57;;;;;;;8.87;8.07;;;30.40;91.50;;;;;;5013669;28;20417;-63
2021/09/05 09:13:24;;;;;;;8.43;7.73;;;30.60;90.80;;;;;;5013869;28;20425;-62
2021/09/05 09:15:50;;;;;;;7.40;6.80;;;31.20;90.30;;;;;;5013700;28;20468;-63
2021/09/05 09:18:32;;;;;;;7.30;6.23;;;31.30;88.40;;;;;;5013473;28;20465;-63
2021/09/05 09:21:00;;;;;;;7.63;7.03;;;31.90;87.20;;;;;;5013740;28;20186;-62
2021/09/05 09:23:28;;;;;;;6.80;6.30;;;32.50;83.90;;;;;;5013516;28;20472;-63
2021/09/05 09:26:04;;;;;;;6.97;6.43;;;32.90;82.00;;;;;;5013780;28;20414;-60
2021/09/05 09:28:36;;;;;;;6.90;6.20;;;33.20;78.50;;;;;;5013213;28;20434;-61
2021/09/05 09:31:23;;;;;;;6.73;6.10;;;33.40;75.50;;;;;;5013437;28;20759;-61
2021/09/05 09:33:51;;;;;;;7.03;6.47;;;33.70;73.40;;;;;;5013376;28;20465;-61
2021/09/05 09:36:19;;;;;;;6.90;6.40;;;33.10;72.90;;;;;;5013709;28;20426;-60
2021/09/05 09:39:05;;;;;;;6.77;6.27;;;33.50;71.40;;;;;;5013122;28;20815;-61
2021/09/05 09:41:34;;;;;;;6.53;6.03;;;33.70;71.10;;;;;;5012443;28;20422;-61
2021/09/05 09:44:05;;;;;;;7.40;6.67;;;33.50;68.70;;;;;;5013158;28;21080;-61
2021/09/05 09:46:32;;;;;;;6.93;6.53;;;32.40;69.60;;;;;;5013069;28;20425;-61
2021/09/05 09:49:06;;;;;;;7.13;6.60;;;32.00;68.70;;;;;;5012782;28;20442;-61
2021/09/05 09:51:32;;;;;;;7.50;6.90;;;32.00;67.40;;;;;;5012976;28;20425;-61
2021/09/05 09:53:58;;;;;;;6.63;6.20;;;32.40;67.80;;;;;;5013007;28;20434;-61
2021/09/05 09:56:26;;;;;;;7.03;6.53;;;33.20;67.90;;;;;;5013100;28;20938;-61
2021/09/05 09:58:58;;;;;;;7.07;6.50;;;34.40;66.70;;;;;;5011403;28;20850;-61
2021/09/05 10:01:25;;;;;;;7.37;6.77;;;35.50;64.40;;;;;;5012985;28;20414;-61
2021/09/05 10:03:53;;;;;;;6.53;6.00;;;36.00;61.80;;;;;;5012884;28;20456;-61
2021/09/05 10:06:21;;;;;;;6.27;5.77;;;35.60;60.50;;;;;;5012869;28;20457;-61
2021/09/05 10:08:47;;;;;;;7.00;6.47;;;36.20;60.10;;;;;;5012742;28;20777;-61
2021/09/05 10:11:15;;;;;;;8.13;7.53;;;37.00;58.40;;;;;;5012839;28;20413;-61
2021/09/05 10:13:43;;;;;;;8.67;6.87;;;37.00;57.20;;;;;;5012727;28;20543;-61
2021/09/05 10:16:10;;;;;;;6.83;6.20;;;37.40;55.50;;;;;;5012690;28;20436;-61
2021/09/05 10:18:49;;;;;;;6.30;5.90;;;36.80;55.10;;;;;;5012864;28;20477;-61
2021/09/05 10:21:16;;;;;;;8.77;8.07;;;37.50;54.20;;;;;;5012631;28;20414;-61
2021/09/05 10:23:47;;;;;;;8.23;7.63;;;38.30;52.10;;;;;;5012559;28;20489;-61
2021/09/05 10:26:14;;;;;;;6.60;6.10;;;37.90;51.40;;;;;;5012649;28;20413;-61
2021/09/05 10:28:41;;;;;;;6.93;6.43;;;37.80;51.80;;;;;;5012172;28;20479;-61
2021/09/05 10:31:09;;;;;;;6.27;5.77;;;38.00;51.30;;;;;;5012460;28;20440;-61
2021/09/05 10:33:37;;;;;;;7.00;6.50;;;37.80;51.40;;;;;;5012938;28;20732;-61
2021/09/05 10:36:08;;;;;;;5.97;5.57;;;37.90;50.60;;;;;;5012443;28;20413;-61
2021/09/05 10:38:36;;;;;;;6.60;6.20;;;37.50;50.60;;;;;;5012114;28;20433;-61
2021/09/05 10:41:08;;;;;;;6.63;6.13;;;37.70;50.00;;;;;;5012364;28;20461;-61
2021/09/05 10:43:53;;;;;;;6.80;6.30;;;37.10;50.70;;;;;;5012240;28;20456;-61
2021/09/05 10:46:20;;;;;;;10.43;6.33;;;35.20;52.40;;;;;;5012588;28;21166;-61
2021/09/05 10:48:46;;;;;;;5.47;5.10;;;34.20;52.50;;;;;;5012092;28;20433;-60
2021/09/05 10:51:17;;;;;;;6.23;5.73;;;34.40;51.60;;;;;;5012178;28;20472;-61
2021/09/05 10:53:54;;;;;;;6.57;6.13;;;34.20;51.20;;;;;;5011932;28;20425;-61
2021/09/05 10:56:28;;;;;;;6.13;5.63;;;35.20;51.60;;;;;;5012270;28;20964;-61
2021/09/05 10:58:59;;;;;;;5.30;4.90;;;37.10;50.00;;;;;;5011819;28;20544;-61
2021/09/05 11:01:36;;;;;;;5.80;5.40;;;38.00;48.00;;;;;;5012152;28;20429;-61
2021/09/05 11:04:16;;;;;;;5.33;4.93;;;37.50;47.80;;;;;;5012051;28;20457;-62
2021/09/05 11:07:06;;;;;;;5.70;5.30;;;38.10;48.20;;;;;;5012097;28;20564;-61
2021/09/05 11:09:31;;;;;;;5.87;5.47;;;38.50;45.50;;;;;;5011955;28;20414;-61
2021/09/05 11:12:03;;;;;;;5.20;4.70;;;38.40;44.70;;;;;;5012235;28;20409;-61
2021/09/05 11:14:40;;;;;;;6.63;6.20;;;38.90;44.70;;;;;;5012049;28;20556;-61
2021/09/05 11:17:08;;;;;;;5.83;5.30;;;39.30;45.50;;;;;;5011749;28;20429;-61
2021/09/05 11:19:35;;;;;;;6.33;5.93;;;38.40;45.60;;;;;;5011517;28;20895;-61
2021/09/05 11:22:07;;;;;;;5.90;5.50;;;38.90;44.90;;;;;;5011946;28;20935;-61
2021/09/05 11:24:33;;;;;;;5.47;5.07;;;39.50;44.30;;;;;;5011920;28;20467;-61
2021/09/05 11:27:03;;;;;;;4.83;4.53;;;39.80;42.50;;;;;;5011847;28;20557;-60
2021/09/05 11:29:29;;;;;;;5.60;5.30;;;39.30;41.70;;;;;;5011624;28;20418;-61
2021/09/05 11:32:10;;;;;;;6.60;6.10;;;39.70;41.80;;;;;;5011802;28;20421;-60
2021/09/05 11:34:37;;;;;;;5.70;5.20;;;39.90;42.80;;;;;;5011845;28;20195;-61
2021/09/05 11:37:04;;;;;;;6.10;5.70;;;40.20;42.30;;;;;;5011867;28;20548;-61
2021/09/05 11:39:30;;;;;;;4.97;4.63;;;40.30;41.90;;;;;;5011518;28;20430;-61
2021/09/05 11:41:58;;;;;;;6.07;5.60;;;40.60;41.70;;;;;;5011763;28;20432;-61
2021/09/05 11:44:31;;;;;;;4.90;4.60;;;41.10;40.90;;;;;;5011622;28;20454;-62
2021/09/05 11:47:07;;;;;;;7.50;6.90;;;42.00;40.40;;;;;;5011762;28;20425;-61
2021/09/05 11:49:45;;;;;;;5.23;4.83;;;42.40;39.80;;;;;;5011487;28;20449;-61
2021/09/05 11:52:11;;;;;;;5.43;5.03;;;42.60;39.00;;;;;;5011738;28;20457;-61
2021/09/05 11:54:36;;;;;;;5.57;5.17;;;42.10;38.70;;;;;;5011693;28;20568;-61
2021/09/05 11:57:02;;;;;;;4.47;4.17;;;41.20;38.10;;;;;;5011635;28;20178;-61
2021/09/05 11:59:28;;;;;;;7.33;6.73;;;40.50;38.10;;;;;;5011327;28;20206;-61
2021/09/05 12:01:54;;;;;;;7.53;6.83;;;41.50;38.40;;;;;;5011595;28;20182;-60
2021/09/05 12:04:20;;;;;;;5.07;4.77;;;41.70;38.40;;;;;;5010218;28;20191;-61
2021/09/05 12:06:46;;;;;;;5.23;4.93;;;39.90;38.70;;;;;;5014887;28;20233;-61
2021/09/05 12:09:24;;;;;;;5.00;4.70;;;41.80;39.00;;;;;;5014696;28;20441;-61
2021/09/05 12:12:03;;;;;;;5.17;4.87;;;42.60;37.60;;;;;;5014992;28;20449;-61
2021/09/05 12:14:33;;;;;;;5.50;5.10;;;42.70;35.80;;;;;;5015007;28;20422;-61
2021/09/05 12:17:13;;;;;;;5.57;5.07;;;41.20;36.90;;;;;;5014639;28;20438;-61
2021/09/05 12:20:07;;;;;;;5.73;5.23;;;42.20;36.70;;;;;;5014614;28;20418;-61
2021/09/05 12:22:50;;;;;;;4.90;4.60;;;42.50;35.00;;;;;;5014710;28;20426;-60
2021/09/05 12:25:22;;;;;;;4.70;4.30;;;42.40;35.20;;;;;;5014691;28;20465;-61
2021/09/05 12:28:05;;;;;;;5.53;5.03;;;42.10;35.10;;;;;;5014607;28;20795;-60
2021/09/05 12:30:35;;;;;;;5.70;5.30;;;41.90;35.30;;;;;;5014394;28;20437;-61
2021/09/05 12:33:10;;;;;;;5.07;4.77;;;40.70;35.20;;;;;;5014614;28;20406;-61
2021/09/05 12:35:37;;;;;;;5.10;4.80;;;40.50;35.50;;;;;;5014473;28;20747;-61
2021/09/05 12:38:20;;;;;;;6.00;5.50;;;39.70;35.90;;;;;;5014363;28;20940;-62